sensor_id;sensor_type;location;lat;lon;timestamp;temperature;humidity
21167;DHT22;10741;52.272;9.580;2022-12-29T00:01:52;8.20;99.90
21167;DHT22;10741;52.272;9.580;2022-12-29T00:04:18;8.20;99.90
21167;DHT22;10741;52.272;9.580;2022-12-29T00:06:44;8.20;99.90
21167;DHT22;10741;52.272;9.580;2022-12-29T00:09:11;8.20;99.90
21167;DHT22;10741;52.272;9.580;2022-12-29T00:11:38;8.30;99.90
21167;DHT22;10741;52.272;9.580;2022-12-29T00:14:05;8.30;99.90
21167;DHT22;10741;52.272;9.580;2022-12-29T00:16:49;8.30;99.90
21167;DHT22;10741;52.272;9.580;2022-12-29T00:19:15;8.30;99.90
21167;DHT22;10741;52.272;9.580;2022-12-29T00:21:59;8.30;99.90
21167;DHT22;10741;52.272;9.580;2022-12-29T00:24:44;8.30;99.90
21167;DHT22;10741;52.272;9.580;2022-12-29T00:27:29;8.30;99.90
21167;DHT22;10741;52.272;9.580;2022-12-29T00:30:16;8.30;99.90
21167;DHT22;10741;52.272;9.580;2022-12-29T00:33:07;8.40;99.90
21167;DHT22;10741;52.272;9.580;2022-12-29T00:35:54;8.40;99.90
21167;DHT22;10741;52.272;9.580;2022-12-29T00:38:22;8.40;99.90
21167;DHT22;10741;52.272;9.580;2022-12-29T00:41:06;8.40;99.90
21167;DHT22;10741;52.272;9.580;2022-12-29T00:43:50;8.40;99.90
21167;DHT22;10741;52.272;9.580;2022-12-29T00:46:41;8.40;99.90
21167;DHT22;10741;52.272;9.580;2022-12-29T00:49:09;8.40;99.90
21167;DHT22;10741;52.272;9.580;2022-12-29T00:51:55;8.40;99.90
21167;DHT22;10741;52.272;9.580;2022-12-29T00:54:21;8.40;99.90
21167;DHT22;10741;52.272;9.580;2022-12-29T00:56:48;8.40;99.90
21167;DHT22;10741;52.272;9.580;2022-12-29T00:59:14;8.50;99.90
21167;DHT22;10741;52.272;9.580;2022-12-29T01:01:40;8.40;99.90
21167;DHT22;10741;52.272;9.580;2022-12-29T01:04:06;8.40;99.90
21167;DHT22;10741;52.272;9.580;2022-12-29T01:06:33;8.40;99.90
21167;DHT22;10741;52.272;9.580;2022-12-29T01:08:59;8.50;99.90
21167;DHT22;10741;52.272;9.580;2022-12-29T01:11:43;8.50;99.90
21167;DHT22;10741;52.272;9.580;2022-12-29T01:14:09;8.50;99.90
21167;DHT22;10741;52.272;9.580;2022-12-29T01:16:35;8.50;99.90
21167;DHT22;10741;52.272;9.580;2022-12-29T01:19:02;8.50;99.90
21167;DHT22;10741;52.272;9.580;2022-12-29T01:21:28;8.60;99.90
21167;DHT22;10741;52.272;9.580;2022-12-29T01:23:54;8.60;99.90
21167;DHT22;10741;52.272;9.580;2022-12-29T01:26:19;8.60;99.90
21167;DHT22;10741;52.272;9.580;2022-12-29T01:28:45;8.60;99.90
21167;DHT22;10741;52.272;9.580;2022-12-29T01:31:13;8.70;99.90
21167;DHT22;10741;52.272;9.580;2022-12-29T01:33:39;8.70;99.90
21167;DHT22;10741;52.272;9.580;2022-12-29T01:36:07;8.70;99.90
21167;DHT22;10741;52.272;9.580;2022-12-29T01:38:33;8.80;99.90
21167;DHT22;10741;52.272;9.580;2022-12-29T01:41:00;8.90;99.90
21167;DHT22;10741;52.272;9.580;2022-12-29T01:43:56;9.00;99.90
21167;DHT22;10741;52.272;9.580;2022-12-29T01:46:51;9.10;99.90
21167;DHT22;10741;52.272;9.580;2022-12-29T01:49:22;9.20;99.90
21167;DHT22;10741;52.272;9.580;2022-12-29T01:51:54;9.20;99.90
21167;DHT22;10741;52.272;9.580;2022-12-29T01:54:32;9.10;99.90
21167;DHT22;10741;52.272;9.580;2022-12-29T01:57:01;9.10;99.90
21167;DHT22;10741;52.272;9.580;2022-12-29T01:59:33;9.20;99.90
21167;DHT22;10741;52.272;9.580;2022-12-29T02:02:00;9.20;99.90
21167;DHT22;10741;52.272;9.580;2022-12-29T02:04:27;9.30;99.90
21167;DHT22;10741;52.272;9.580;2022-12-29T02:07:04;9.30;99.90
21167;DHT22;10741;52.272;9.580;2022-12-29T02:09:31;9.30;99.90
21167;DHT22;10741;52.272;9.580;2022-12-29T02:11:57;9.30;99.90
21167;DHT22;10741;52.272;9.580;2022-12-29T02:14:23;9.30;99.90
21167;DHT22;10741;52.272;9.580;2022-12-29T02:18:03;9.30;99.90
21167;DHT22;10741;52.272;9.580;2022-12-29T02:31:17;9.50;99.90
21167;DHT22;10741;52.272;9.580;2022-12-29T02:37:00;9.60;99.90
21167;DHT22;10741;52.272;9.580;2022-12-29T02:39:46;9.60;99.90
21167;DHT22;10741;52.272;9.580;2022-12-29T02:42:29;9.50;99.90
21167;DHT22;10741;52.272;9.580;2022-12-29T02:45:13;9.50;99.90
21167;DHT22;10741;52.272;9.580;2022-12-29T02:48:29;9.50;99.90
21167;DHT22;10741;52.272;9.580;2022-12-29T02:51:03;9.60;99.90
21167;DHT22;10741;52.272;9.580;2022-12-29T02:53:30;9.60;99.90
21167;DHT22;10741;52.272;9.580;2022-12-29T02:56:16;9.60;99.90
21167;DHT22;10741;52.272;9.580;2022-12-29T02:58:41;9.60;99.90
21167;DHT22;10741;52.272;9.580;2022-12-29T03:01:19;9.50;99.90
21167;DHT22;10741;52.272;9.580;2022-12-29T03:06:53;9.50;99.90
21167;DHT22;10741;52.272;9.580;2022-12-29T03:09:46;9.50;99.90
21167;DHT22;10741;52.272;9.580;2022-12-29T03:17:54;9.50;99.90
21167;DHT22;10741;52.272;9.580;2022-12-29T03:20:26;9.50;99.90
21167;DHT22;10741;52.272;9.580;2022-12-29T03:22:58;9.60;99.90
21167;DHT22;10741;52.272;9.580;2022-12-29T03:25:35;9.70;99.90
21167;DHT22;10741;52.272;9.580;2022-12-29T03:28:06;9.80;99.90
21167;DHT22;10741;52.272;9.580;2022-12-29T03:30:34;9.90;99.90
21167;DHT22;10741;52.272;9.580;2022-12-29T03:33:07;9.90;99.90
21167;DHT22;10741;52.272;9.580;2022-12-29T03:35:37;9.80;99.90
21167;DHT22;10741;52.272;9.580;2022-12-29T03:38:11;9.80;99.90
21167;DHT22;10741;52.272;9.580;2022-12-29T03:40:40;9.80;99.90
21167;DHT22;10741;52.272;9.580;2022-12-29T03:43:07;10.00;99.90
21167;DHT22;10741;52.272;9.580;2022-12-29T03:45:33;10.10;99.90
21167;DHT22;10741;52.272;9.580;2022-12-29T03:47:59;10.10;99.90
21167;DHT22;10741;52.272;9.580;2022-12-29T03:50:25;10.00;99.90
21167;DHT22;10741;52.272;9.580;2022-12-29T03:52:50;10.00;99.90
21167;DHT22;10741;52.272;9.580;2022-12-29T03:55:16;10.20;99.90
21167;DHT22;10741;52.272;9.580;2022-12-29T03:57:42;10.30;99.90
21167;DHT22;10741;52.272;9.580;2022-12-29T04:00:08;10.20;99.90
21167;DHT22;10741;52.272;9.580;2022-12-29T04:02:44;10.30;99.90
21167;DHT22;10741;52.272;9.580;2022-12-29T04:05:09;10.30;99.90
21167;DHT22;10741;52.272;9.580;2022-12-29T04:07:35;10.30;99.90
21167;DHT22;10741;52.272;9.580;2022-12-29T04:10:01;10.30;99.90
21167;DHT22;10741;52.272;9.580;2022-12-29T04:12:27;10.30;99.90
21167;DHT22;10741;52.272;9.580;2022-12-29T04:14:53;10.40;99.90
21167;DHT22;10741;52.272;9.580;2022-12-29T04:17:18;10.30;99.90
21167;DHT22;10741;52.272;9.580;2022-12-29T04:19:44;10.30;99.90
21167;DHT22;10741;52.272;9.580;2022-12-29T04:22:10;10.30;99.90
21167;DHT22;10741;52.272;9.580;2022-12-29T04:24:37;10.40;99.90
21167;DHT22;10741;52.272;9.580;2022-12-29T04:27:03;10.40;99.90
21167;DHT22;10741;52.272;9.580;2022-12-29T04:29:28;10.40;99.90
21167;DHT22;10741;52.272;9.580;2022-12-29T04:31:54;10.40;99.90
21167;DHT22;10741;52.272;9.580;2022-12-29T04:34:20;10.40;99.90
21167;DHT22;10741;52.272;9.580;2022-12-29T04:36:45;10.50;99.90
21167;DHT22;10741;52.272;9.580;2022-12-29T04:39:11;10.50;99.90
21167;DHT22;10741;52.272;9.580;2022-12-29T04:41:37;10.50;99.90
21167;DHT22;10741;52.272;9.580;2022-12-29T04:44:03;10.50;99.90
21167;DHT22;10741;52.272;9.580;2022-12-29T04:46:28;10.60;99.90
21167;DHT22;10741;52.272;9.580;2022-12-29T04:48:54;10.70;99.90
21167;DHT22;10741;52.272;9.580;2022-12-29T04:51:20;10.70;99.90
21167;DHT22;10741;52.272;9.580;2022-12-29T04:53:46;10.70;99.90
21167;DHT22;10741;52.272;9.580;2022-12-29T04:56:11;10.70;99.90
21167;DHT22;10741;52.272;9.580;2022-12-29T04:58:37;10.70;99.90
21167;DHT22;10741;52.272;9.580;2022-12-29T05:01:03;10.60;99.90
21167;DHT22;10741;52.272;9.580;2022-12-29T05:03:28;10.60;99.90
21167;DHT22;10741;52.272;9.580;2022-12-29T05:05:55;10.60;99.90
21167;DHT22;10741;52.272;9.580;2022-12-29T05:08:22;10.60;99.90
21167;DHT22;10741;52.272;9.580;2022-12-29T05:10:50;10.60;99.90
21167;DHT22;10741;52.272;9.580;2022-12-29T05:13:16;10.70;99.90
21167;DHT22;10741;52.272;9.580;2022-12-29T05:15:50;10.70;99.90
21167;DHT22;10741;52.272;9.580;2022-12-29T05:18:16;10.60;99.90
21167;DHT22;10741;52.272;9.580;2022-12-29T05:20:41;10.80;99.90
21167;DHT22;10741;52.272;9.580;2022-12-29T05:23:07;10.70;99.90
21167;DHT22;10741;52.272;9.580;2022-12-29T05:25:33;10.70;99.90
21167;DHT22;10741;52.272;9.580;2022-12-29T05:27:59;10.80;99.90
21167;DHT22;10741;52.272;9.580;2022-12-29T05:30:24;10.80;99.90
21167;DHT22;10741;52.272;9.580;2022-12-29T05:32:50;10.80;99.90
21167;DHT22;10741;52.272;9.580;2022-12-29T05:35:16;10.90;99.90
21167;DHT22;10741;52.272;9.580;2022-12-29T05:37:41;10.80;99.90
21167;DHT22;10741;52.272;9.580;2022-12-29T05:40:07;10.80;99.90
21167;DHT22;10741;52.272;9.580;2022-12-29T05:42:33;10.70;99.90
21167;DHT22;10741;52.272;9.580;2022-12-29T05:44:59;10.70;99.90
21167;DHT22;10741;52.272;9.580;2022-12-29T05:47:25;10.60;99.90
21167;DHT22;10741;52.272;9.580;2022-12-29T05:49:50;10.60;99.90
21167;DHT22;10741;52.272;9.580;2022-12-29T05:52:17;10.50;99.90
21167;DHT22;10741;52.272;9.580;2022-12-29T05:54:42;10.50;99.90
21167;DHT22;10741;52.272;9.580;2022-12-29T05:57:08;10.40;99.90
21167;DHT22;10741;52.272;9.580;2022-12-29T05:59:35;10.40;99.90
21167;DHT22;10741;52.272;9.580;2022-12-29T06:02:01;10.30;99.90
21167;DHT22;10741;52.272;9.580;2022-12-29T06:04:26;10.20;99.90
21167;DHT22;10741;52.272;9.580;2022-12-29T06:06:52;10.10;99.90
21167;DHT22;10741;52.272;9.580;2022-12-29T06:09:18;9.90;99.90
21167;DHT22;10741;52.272;9.580;2022-12-29T06:11:43;9.80;99.90
21167;DHT22;10741;52.272;9.580;2022-12-29T06:14:09;9.70;99.90
21167;DHT22;10741;52.272;9.580;2022-12-29T06:16:35;9.60;99.90
21167;DHT22;10741;52.272;9.580;2022-12-29T06:19:01;9.60;99.90
21167;DHT22;10741;52.272;9.580;2022-12-29T06:21:27;9.60;99.90
21167;DHT22;10741;52.272;9.580;2022-12-29T06:23:53;9.60;99.90
21167;DHT22;10741;52.272;9.580;2022-12-29T06:26:19;9.60;99.90
21167;DHT22;10741;52.272;9.580;2022-12-29T06:28:44;9.70;99.90
21167;DHT22;10741;52.272;9.580;2022-12-29T06:31:11;9.70;99.90
21167;DHT22;10741;52.272;9.580;2022-12-29T06:33:37;9.70;99.90
21167;DHT22;10741;52.272;9.580;2022-12-29T06:36:04;9.70;99.90
21167;DHT22;10741;52.272;9.580;2022-12-29T06:38:29;9.80;99.90
21167;DHT22;10741;52.272;9.580;2022-12-29T06:40:55;10.00;99.90
21167;DHT22;10741;52.272;9.580;2022-12-29T06:43:21;10.20;99.90
21167;DHT22;10741;52.272;9.580;2022-12-29T06:45:47;10.30;99.90
21167;DHT22;10741;52.272;9.580;2022-12-29T06:48:12;10.40;99.90
21167;DHT22;10741;52.272;9.580;2022-12-29T06:50:38;10.40;99.90
21167;DHT22;10741;52.272;9.580;2022-12-29T06:53:04;10.40;99.90
21167;DHT22;10741;52.272;9.580;2022-12-29T06:55:30;10.40;99.90
21167;DHT22;10741;52.272;9.580;2022-12-29T06:57:57;10.20;99.90
21167;DHT22;10741;52.272;9.580;2022-12-29T07:00:23;10.10;99.90
21167;DHT22;10741;52.272;9.580;2022-12-29T07:02:50;10.00;99.90
21167;DHT22;10741;52.272;9.580;2022-12-29T07:05:15;9.90;99.90
21167;DHT22;10741;52.272;9.580;2022-12-29T07:07:41;9.90;99.90
21167;DHT22;10741;52.272;9.580;2022-12-29T07:10:07;9.90;99.90
21167;DHT22;10741;52.272;9.580;2022-12-29T07:12:33;10.00;99.90
21167;DHT22;10741;52.272;9.580;2022-12-29T07:14:58;10.00;99.90
21167;DHT22;10741;52.272;9.580;2022-12-29T07:17:24;9.90;99.90
21167;DHT22;10741;52.272;9.580;2022-12-29T07:19:50;9.90;99.90
21167;DHT22;10741;52.272;9.580;2022-12-29T07:22:15;9.90;99.90
21167;DHT22;10741;52.272;9.580;2022-12-29T07:24:41;9.80;99.90
21167;DHT22;10741;52.272;9.580;2022-12-29T07:27:08;9.80;99.90
21167;DHT22;10741;52.272;9.580;2022-12-29T07:29:36;9.80;99.90
21167;DHT22;10741;52.272;9.580;2022-12-29T07:32:02;9.80;99.90
21167;DHT22;10741;52.272;9.580;2022-12-29T07:34:28;9.80;99.90
21167;DHT22;10741;52.272;9.580;2022-12-29T07:36:54;9.70;99.90
21167;DHT22;10741;52.272;9.580;2022-12-29T07:39:20;9.70;99.90
21167;DHT22;10741;52.272;9.580;2022-12-29T07:41:46;9.50;99.90
21167;DHT22;10741;52.272;9.580;2022-12-29T07:44:11;9.50;99.90
21167;DHT22;10741;52.272;9.580;2022-12-29T07:46:37;9.30;99.90
21167;DHT22;10741;52.272;9.580;2022-12-29T07:49:03;9.30;99.90
21167;DHT22;10741;52.272;9.580;2022-12-29T07:51:28;9.20;99.90
21167;DHT22;10741;52.272;9.580;2022-12-29T07:53:54;9.20;99.90
21167;DHT22;10741;52.272;9.580;2022-12-29T07:56:20;9.10;99.90
21167;DHT22;10741;52.272;9.580;2022-12-29T07:58:45;9.10;99.90
21167;DHT22;10741;52.272;9.580;2022-12-29T08:01:11;9.10;99.90
21167;DHT22;10741;52.272;9.580;2022-12-29T08:03:37;9.10;99.90
21167;DHT22;10741;52.272;9.580;2022-12-29T08:06:03;9.10;99.90
21167;DHT22;10741;52.272;9.580;2022-12-29T08:08:29;9.10;99.90
21167;DHT22;10741;52.272;9.580;2022-12-29T08:10:54;9.20;99.90
21167;DHT22;10741;52.272;9.580;2022-12-29T08:13:20;9.20;99.90
21167;DHT22;10741;52.272;9.580;2022-12-29T08:15:46;9.30;99.90
21167;DHT22;10741;52.272;9.580;2022-12-29T08:18:12;9.30;99.90
21167;DHT22;10741;52.272;9.580;2022-12-29T08:20:37;9.30;99.90
21167;DHT22;10741;52.272;9.580;2022-12-29T08:23:03;9.30;99.90
21167;DHT22;10741;52.272;9.580;2022-12-29T08:25:29;9.40;99.90
21167;DHT22;10741;52.272;9.580;2022-12-29T08:27:54;9.40;99.90
21167;DHT22;10741;52.272;9.580;2022-12-29T08:30:20;9.30;99.90
21167;DHT22;10741;52.272;9.580;2022-12-29T08:32:46;9.30;99.90
21167;DHT22;10741;52.272;9.580;2022-12-29T08:35:12;9.30;99.90
21167;DHT22;10741;52.272;9.580;2022-12-29T08:37:38;9.20;99.90
21167;DHT22;10741;52.272;9.580;2022-12-29T08:40:04;9.20;99.90
21167;DHT22;10741;52.272;9.580;2022-12-29T08:42:31;9.20;99.90
21167;DHT22;10741;52.272;9.580;2022-12-29T08:44:59;9.20;99.90
21167;DHT22;10741;52.272;9.580;2022-12-29T08:47:25;9.20;99.90
21167;DHT22;10741;52.272;9.580;2022-12-29T08:49:51;9.10;99.90
21167;DHT22;10741;52.272;9.580;2022-12-29T08:52:17;9.10;99.90
21167;DHT22;10741;52.272;9.580;2022-12-29T08:54:43;9.20;99.90
21167;DHT22;10741;52.272;9.580;2022-12-29T08:57:09;9.10;99.90
21167;DHT22;10741;52.272;9.580;2022-12-29T08:59:35;9.10;99.90
21167;DHT22;10741;52.272;9.580;2022-12-29T09:02:00;9.20;99.90
21167;DHT22;10741;52.272;9.580;2022-12-29T09:04:27;9.20;99.90
21167;DHT22;10741;52.272;9.580;2022-12-29T09:06:53;9.20;99.90
21167;DHT22;10741;52.272;9.580;2022-12-29T09:09:20;9.20;99.90
21167;DHT22;10741;52.272;9.580;2022-12-29T09:11:46;9.30;99.90
21167;DHT22;10741;52.272;9.580;2022-12-29T09:14:12;9.40;99.90
21167;DHT22;10741;52.272;9.580;2022-12-29T09:16:38;9.60;99.90
21167;DHT22;10741;52.272;9.580;2022-12-29T09:19:05;9.80;99.90
21167;DHT22;10741;52.272;9.580;2022-12-29T09:21:31;9.90;99.90
21167;DHT22;10741;52.272;9.580;2022-12-29T09:23:56;9.80;99.90
21167;DHT22;10741;52.272;9.580;2022-12-29T09:26:22;9.90;99.90
21167;DHT22;10741;52.272;9.580;2022-12-29T09:28:48;9.90;99.90
21167;DHT22;10741;52.272;9.580;2022-12-29T09:31:14;9.90;99.90
21167;DHT22;10741;52.272;9.580;2022-12-29T09:33:40;9.90;99.90
21167;DHT22;10741;52.272;9.580;2022-12-29T09:36:06;9.90;99.90
21167;DHT22;10741;52.272;9.580;2022-12-29T09:38:31;10.00;99.90
21167;DHT22;10741;52.272;9.580;2022-12-29T09:44:16;10.20;99.90
21167;DHT22;10741;52.272;9.580;2022-12-29T09:46:48;10.20;99.90
21167;DHT22;10741;52.272;9.580;2022-12-29T09:49:26;10.10;99.90
21167;DHT22;10741;52.272;9.580;2022-12-29T09:51:57;10.00;99.90
21167;DHT22;10741;52.272;9.580;2022-12-29T09:54:39;9.80;99.90
21167;DHT22;10741;52.272;9.580;2022-12-29T09:57:28;9.70;99.90
21167;DHT22;10741;52.272;9.580;2022-12-29T10:02:39;9.50;99.90
21167;DHT22;10741;52.272;9.580;2022-12-29T10:08:16;9.30;99.90
21167;DHT22;10741;52.272;9.580;2022-12-29T10:10:59;9.20;99.90
21167;DHT22;10741;52.272;9.580;2022-12-29T10:14:21;9.20;99.90
21167;DHT22;10741;52.272;9.580;2022-12-29T10:24:59;10.00;99.90
21167;DHT22;10741;52.272;9.580;2022-12-29T10:27:30;9.90;99.90
21167;DHT22;10741;52.272;9.580;2022-12-29T10:29:58;9.80;99.90
21167;DHT22;10741;52.272;9.580;2022-12-29T10:35:13;9.70;99.90
21167;DHT22;10741;52.272;9.580;2022-12-29T10:38:03;9.60;99.90
21167;DHT22;10741;52.272;9.580;2022-12-29T10:43:03;9.50;99.90
21167;DHT22;10741;52.272;9.580;2022-12-29T10:45:31;9.60;99.90
21167;DHT22;10741;52.272;9.580;2022-12-29T10:48:06;9.60;99.90
21167;DHT22;10741;52.272;9.580;2022-12-29T10:50:34;9.50;99.90
21167;DHT22;10741;52.272;9.580;2022-12-29T10:53:03;9.50;99.90
21167;DHT22;10741;52.272;9.580;2022-12-29T10:55:35;9.50;99.90
21167;DHT22;10741;52.272;9.580;2022-12-29T10:58:05;9.50;99.90
21167;DHT22;10741;52.272;9.580;2022-12-29T11:00:32;9.50;99.90
21167;DHT22;10741;52.272;9.580;2022-12-29T11:05:54;9.50;99.90
21167;DHT22;10741;52.272;9.580;2022-12-29T11:08:28;9.70;99.90
21167;DHT22;10741;52.272;9.580;2022-12-29T11:11:01;10.10;99.90
21167;DHT22;10741;52.272;9.580;2022-12-29T11:13:29;10.60;99.90
21167;DHT22;10741;52.272;9.580;2022-12-29T11:15:56;10.90;99.90
21167;DHT22;10741;52.272;9.580;2022-12-29T11:18:36;11.30;99.90
21167;DHT22;10741;52.272;9.580;2022-12-29T11:21:05;11.60;99.90
21167;DHT22;10741;52.272;9.580;2022-12-29T11:23:40;11.80;99.90
21167;DHT22;10741;52.272;9.580;2022-12-29T11:26:20;11.80;99.90
21167;DHT22;10741;52.272;9.580;2022-12-29T11:31:53;11.60;99.90
21167;DHT22;10741;52.272;9.580;2022-12-29T11:34:40;11.60;99.90
21167;DHT22;10741;52.272;9.580;2022-12-29T11:37:06;11.60;99.90
21167;DHT22;10741;52.272;9.580;2022-12-29T11:39:56;11.50;99.90
21167;DHT22;10741;52.272;9.580;2022-12-29T11:47:56;11.60;99.90
21167;DHT22;10741;52.272;9.580;2022-12-29T11:50:26;11.70;99.90
21167;DHT22;10741;52.272;9.580;2022-12-29T11:53:04;11.60;99.90
21167;DHT22;10741;52.272;9.580;2022-12-29T11:55:31;11.60;99.90
21167;DHT22;10741;52.272;9.580;2022-12-29T11:58:00;11.60;99.90
21167;DHT22;10741;52.272;9.580;2022-12-29T12:00:30;11.80;99.90
21167;DHT22;10741;52.272;9.580;2022-12-29T12:03:02;11.80;99.90
21167;DHT22;10741;52.272;9.580;2022-12-29T12:11:03;11.30;99.90
21167;DHT22;10741;52.272;9.580;2022-12-29T12:13:39;11.40;99.90
21167;DHT22;10741;52.272;9.580;2022-12-29T12:16:24;11.20;99.90
21167;DHT22;10741;52.272;9.580;2022-12-29T12:21:39;11.20;99.90
21167;DHT22;10741;52.272;9.580;2022-12-29T12:29:46;11.00;99.90
21167;DHT22;10741;52.272;9.580;2022-12-29T12:32:20;10.90;99.90
21167;DHT22;10741;52.272;9.580;2022-12-29T12:34:48;10.90;99.90
21167;DHT22;10741;52.272;9.580;2022-12-29T12:42:41;11.10;99.90
21167;DHT22;10741;52.272;9.580;2022-12-29T12:45:45;11.10;99.90
21167;DHT22;10741;52.272;9.580;2022-12-29T12:48:44;11.20;99.90
21167;DHT22;10741;52.272;9.580;2022-12-29T12:51:20;11.10;99.90
21167;DHT22;10741;52.272;9.580;2022-12-29T13:04:59;11.30;99.90
21167;DHT22;10741;52.272;9.580;2022-12-29T13:18:10;11.30;99.90
21167;DHT22;10741;52.272;9.580;2022-12-29T13:20:57;11.30;99.90
21167;DHT22;10741;52.272;9.580;2022-12-29T13:23:36;11.30;99.90
21167;DHT22;10741;52.272;9.580;2022-12-29T13:26:14;11.30;99.90
21167;DHT22;10741;52.272;9.580;2022-12-29T13:29:10;11.30;99.90
21167;DHT22;10741;52.272;9.580;2022-12-29T13:34:37;11.30;99.90
21167;DHT22;10741;52.272;9.580;2022-12-29T13:37:13;11.20;99.90
21167;DHT22;10741;52.272;9.580;2022-12-29T13:40:02;11.20;99.90
21167;DHT22;10741;52.272;9.580;2022-12-29T13:42:29;11.30;99.90
21167;DHT22;10741;52.272;9.580;2022-12-29T13:45:04;11.20;99.90
21167;DHT22;10741;52.272;9.580;2022-12-29T13:47:36;11.20;99.90
21167;DHT22;10741;52.272;9.580;2022-12-29T13:50:12;11.10;99.90
21167;DHT22;10741;52.272;9.580;2022-12-29T13:53:03;11.10;99.90
21167;DHT22;10741;52.272;9.580;2022-12-29T13:55:51;11.20;99.90
21167;DHT22;10741;52.272;9.580;2022-12-29T13:58:26;11.20;99.90
21167;DHT22;10741;52.272;9.580;2022-12-29T14:08:46;11.10;99.90
21167;DHT22;10741;52.272;9.580;2022-12-29T14:11:15;11.00;99.90
21167;DHT22;10741;52.272;9.580;2022-12-29T14:13:46;11.00;99.90
21167;DHT22;10741;52.272;9.580;2022-12-29T14:16:39;10.90;99.90
21167;DHT22;10741;52.272;9.580;2022-12-29T14:19:28;10.90;99.90
21167;DHT22;10741;52.272;9.580;2022-12-29T14:22:03;10.90;99.90
21167;DHT22;10741;52.272;9.580;2022-12-29T14:26:58;11.00;99.90
21167;DHT22;10741;52.272;9.580;2022-12-29T14:31:53;11.00;99.90
21167;DHT22;10741;52.272;9.580;2022-12-29T14:34:25;11.00;99.90
21167;DHT22;10741;52.272;9.580;2022-12-29T14:36:55;11.00;99.90
21167;DHT22;10741;52.272;9.580;2022-12-29T14:39:39;10.90;99.90
21167;DHT22;10741;52.272;9.580;2022-12-29T14:45:20;10.90;99.90
21167;DHT22;10741;52.272;9.580;2022-12-29T14:47:51;10.80;99.90
21167;DHT22;10741;52.272;9.580;2022-12-29T14:53:01;10.80;99.90
21167;DHT22;10741;52.272;9.580;2022-12-29T14:55:36;10.70;99.90
21167;DHT22;10741;52.272;9.580;2022-12-29T14:58:13;10.60;99.90
21167;DHT22;10741;52.272;9.580;2022-12-29T15:00:40;10.60;99.90
21167;DHT22;10741;52.272;9.580;2022-12-29T15:03:17;10.60;99.90
21167;DHT22;10741;52.272;9.580;2022-12-29T15:08:13;10.40;99.90
21167;DHT22;10741;52.272;9.580;2022-12-29T15:10:45;10.30;99.90
21167;DHT22;10741;52.272;9.580;2022-12-29T15:13:21;10.30;99.90
21167;DHT22;10741;52.272;9.580;2022-12-29T15:15:47;10.30;99.90
21167;DHT22;10741;52.272;9.580;2022-12-29T15:18:28;10.30;99.90
21167;DHT22;10741;52.272;9.580;2022-12-29T15:21:03;10.30;99.90
21167;DHT22;10741;52.272;9.580;2022-12-29T15:23:32;10.20;99.90
21167;DHT22;10741;52.272;9.580;2022-12-29T15:26:06;10.20;99.90
21167;DHT22;10741;52.272;9.580;2022-12-29T15:28:43;10.10;99.90
21167;DHT22;10741;52.272;9.580;2022-12-29T15:31:24;10.20;99.90
21167;DHT22;10741;52.272;9.580;2022-12-29T15:34:14;10.20;99.90
21167;DHT22;10741;52.272;9.580;2022-12-29T15:36:43;10.00;99.90
21167;DHT22;10741;52.272;9.580;2022-12-29T15:39:28;9.90;99.90
21167;DHT22;10741;52.272;9.580;2022-12-29T15:44:44;9.80;99.90
21167;DHT22;10741;52.272;9.580;2022-12-29T15:47:20;9.70;99.90
21167;DHT22;10741;52.272;9.580;2022-12-29T15:49:52;9.80;99.90
21167;DHT22;10741;52.272;9.580;2022-12-29T15:52:21;9.90;99.90
21167;DHT22;10741;52.272;9.580;2022-12-29T15:54:49;9.90;99.90
21167;DHT22;10741;52.272;9.580;2022-12-29T15:57:23;10.00;99.90
21167;DHT22;10741;52.272;9.580;2022-12-29T15:59:50;10.00;99.90
21167;DHT22;10741;52.272;9.580;2022-12-29T16:02:16;10.00;99.90
21167;DHT22;10741;52.272;9.580;2022-12-29T16:04:42;10.00;99.90
21167;DHT22;10741;52.272;9.580;2022-12-29T16:07:26;9.90;99.90
21167;DHT22;10741;52.272;9.580;2022-12-29T16:09:58;9.80;99.90
21167;DHT22;10741;52.272;9.580;2022-12-29T16:12:29;9.70;99.90
21167;DHT22;10741;52.272;9.580;2022-12-29T16:15:02;9.70;99.90
21167;DHT22;10741;52.272;9.580;2022-12-29T16:17:30;9.60;99.90
21167;DHT22;10741;52.272;9.580;2022-12-29T16:19:59;9.50;99.90
21167;DHT22;10741;52.272;9.580;2022-12-29T16:22:35;9.50;99.90
21167;DHT22;10741;52.272;9.580;2022-12-29T16:25:13;9.60;99.90
21167;DHT22;10741;52.272;9.580;2022-12-29T16:27:43;9.50;99.90
21167;DHT22;10741;52.272;9.580;2022-12-29T16:30:22;9.50;99.90
21167;DHT22;10741;52.272;9.580;2022-12-29T16:32:50;9.60;99.90
21167;DHT22;10741;52.272;9.580;2022-12-29T16:37:44;9.50;99.90
21167;DHT22;10741;52.272;9.580;2022-12-29T16:40:28;9.50;99.90
21167;DHT22;10741;52.272;9.580;2022-12-29T16:43:04;9.60;99.90
21167;DHT22;10741;52.272;9.580;2022-12-29T16:50:40;9.80;99.90
21167;DHT22;10741;52.272;9.580;2022-12-29T16:53:17;9.80;99.90
21167;DHT22;10741;52.272;9.580;2022-12-29T16:55:48;9.80;99.90
21167;DHT22;10741;52.272;9.580;2022-12-29T16:58:20;10.00;99.90
21167;DHT22;10741;52.272;9.580;2022-12-29T17:00:47;10.00;99.90
21167;DHT22;10741;52.272;9.580;2022-12-29T17:03:13;9.90;99.90
21167;DHT22;10741;52.272;9.580;2022-12-29T17:05:39;9.90;99.90
21167;DHT22;10741;52.272;9.580;2022-12-29T17:08:19;9.90;99.90
21167;DHT22;10741;52.272;9.580;2022-12-29T17:10:52;9.80;99.90
21167;DHT22;10741;52.272;9.580;2022-12-29T17:13:38;9.90;99.90
21167;DHT22;10741;52.272;9.580;2022-12-29T17:16:05;10.00;99.90
21167;DHT22;10741;52.272;9.580;2022-12-29T17:18:34;9.90;99.90
21167;DHT22;10741;52.272;9.580;2022-12-29T17:21:01;9.90;99.90
21167;DHT22;10741;52.272;9.580;2022-12-29T17:23:27;9.80;99.90
21167;DHT22;10741;52.272;9.580;2022-12-29T17:25:54;9.80;99.90
21167;DHT22;10741;52.272;9.580;2022-12-29T17:28:30;9.80;99.90
21167;DHT22;10741;52.272;9.580;2022-12-29T17:31:02;9.70;99.90
21167;DHT22;10741;52.272;9.580;2022-12-29T17:33:35;9.60;99.90
21167;DHT22;10741;52.272;9.580;2022-12-29T17:36:01;9.60;99.90
21167;DHT22;10741;52.272;9.580;2022-12-29T17:38:29;9.70;99.90
21167;DHT22;10741;52.272;9.580;2022-12-29T17:40:55;9.60;99.90
21167;DHT22;10741;52.272;9.580;2022-12-29T17:43:22;9.70;99.90
21167;DHT22;10741;52.272;9.580;2022-12-29T17:45:56;9.60;99.90
21167;DHT22;10741;52.272;9.580;2022-12-29T17:48:23;9.50;99.90
21167;DHT22;10741;52.272;9.580;2022-12-29T17:50:51;9.40;99.90
21167;DHT22;10741;52.272;9.580;2022-12-29T17:53:23;9.30;99.90
21167;DHT22;10741;52.272;9.580;2022-12-29T17:55:50;9.40;99.90
21167;DHT22;10741;52.272;9.580;2022-12-29T17:58:29;9.40;99.90
21167;DHT22;10741;52.272;9.580;2022-12-29T18:00:59;9.50;99.90
21167;DHT22;10741;52.272;9.580;2022-12-29T18:03:33;9.60;99.90
21167;DHT22;10741;52.272;9.580;2022-12-29T18:05:59;9.50;99.90
21167;DHT22;10741;52.272;9.580;2022-12-29T18:08:25;9.60;99.90
21167;DHT22;10741;52.272;9.580;2022-12-29T18:10:54;9.60;99.90
21167;DHT22;10741;52.272;9.580;2022-12-29T18:13:28;9.60;99.90
21167;DHT22;10741;52.272;9.580;2022-12-29T18:15:54;9.70;99.90